Horace, Nebraska
Current Conditions -  °F | °C
As of 2:53 PM on Wednesday 26 Nov 2014 (Local Time) from KODX Reporting Station
Few Clouds Few Clouds  
Wind Chill: -8°   Ceiling: Unl
Heat Index: -2°   Visibility: 10mi
Dew Point: -8°   Wind: 15mph
Humidity: 61%   Direction: 330°NNW
Pressure: 30.28"   Gusts: 24mph
Location:  41.5399°N, 98.6677°W
Report Text: KODX 262053Z AUTO 33013G21KT 10SM FEW025 M02/M08 A3028 RMK AO2 SLP276 T10171083 53014
Loading
Personal Weather Stations






























Interactive Weather Map New forecast layout! Learn more

10-Day Weather Forecast

Advertisements
Track Severe Weather on mobile